Time;durP1;ratioP1;P1;durP2;ratioP2;P2;SDS_P1;SDS_P2;PMS_P1;PMS_P2;Temp;Humidity;BMP_temperature;BMP_pressure;BME280_temperature;BME280_humidity;BME280_pressure;Samples;Min_cycle;Max_cycle;Signal;HPM_P1;HPM_P2
2022/05/29 00:00:16;;;;;;;14.18;8.27;;;;;;;18.33;73.16;94547.94;4974134;28;20235;-66
2022/05/29 00:02:42;;;;;;;15.50;8.82;;;;;;;18.38;73.83;94556.13;4980246;28;20239;-73
2022/05/29 00:05:10;;;;;;;13.15;9.40;;;;;;;18.47;73.41;94564.66;4966034;28;20223;-73
2022/05/29 00:07:35;;;;;;;12.27;9.80;;;;;;;18.45;73.28;94556.09;4964182;28;20308;-68
2022/05/29 00:10:05;;;;;;;15.52;9.98;;;;;;;18.42;73.96;94540.56;4962649;28;20207;-66
2022/05/29 00:12:30;;;;;;;18.27;11.40;;;;;;;18.30;75.26;94535.06;4977150;28;20234;-65
2022/05/29 00:14:56;;;;;;;16.10;10.70;;;;;;;18.37;75.42;94546.50;4959436;28;20228;-64
2022/05/29 00:17:21;;;;;;;16.02;10.85;;;;;;;18.33;76.36;94539.94;4959348;28;20239;-72
2022/05/29 00:19:47;;;;;;;19.50;12.00;;;;;;;18.40;76.47;94564.72;4978607;28;20230;-73
2022/05/29 00:22:18;;;;;;;15.35;10.98;;;;;;;18.34;76.84;94556.75;4965675;28;20200;-68
2022/05/29 00:24:45;;;;;;;17.13;11.38;;;;;;;18.37;76.43;94546.50;4979709;28;20227;-65
2022/05/29 00:27:11;;;;;;;13.48;10.65;;;;;;;18.35;75.98;94540.56;4975884;28;20398;-70
2022/05/29 00:29:38;;;;;;;17.58;10.82;;;;;;;18.45;75.03;94519.63;4965524;28;20278;-64
2022/05/29 00:32:04;;;;;;;15.52;11.05;;;;;;;18.38;74.69;94476.25;4966958;28;20261;-69
2022/05/29 00:34:30;;;;;;;14.32;11.52;;;;;;;18.35;75.41;94447.41;4964452;28;20219;-70
2022/05/29 00:36:58;;;;;;;15.68;11.45;;;;;;;18.25;77.18;94449.72;4972074;28;20245;-64
2022/05/29 00:39:25;;;;;;;18.17;11.75;;;;;;;18.28;77.66;94468.75;4982391;28;20312;-66
2022/05/29 00:41:51;;;;;;;17.75;12.90;;;;;;;18.25;77.66;94471.00;4982384;28;20234;-70
2022/05/29 00:44:29;;;;;;;16.40;11.30;;;;;;;18.32;76.86;94476.31;4980848;28;20231;-71
2022/05/29 00:47:00;;;;;;;16.17;11.35;;;;;;;18.06;77.69;94462.91;4966402;28;20223;-65
2022/05/29 00:49:31;;;;;;;18.85;12.10;;;;;;;18.23;77.18;94436.63;4985781;28;20349;-64
2022/05/29 00:52:06;;;;;;;15.30;11.13;;;;;;;18.33;76.65;94441.47;4986253;28;20213;-70
2022/05/29 00:55:00;;;;;;;13.85;10.40;;;;;;;18.28;76.86;94492.72;4988962;28;20222;-70
2022/05/29 00:57:35;;;;;;;15.43;11.50;;;;;;;18.24;76.70;94525.25;4975240;28;20228;-71
2022/05/29 01:00:05;;;;;;;16.35;10.73;;;;;;;18.30;76.09;94468.53;4974743;28;20949;-70
2022/05/29 01:02:31;;;;;;;16.13;12.00;;;;;;;18.27;76.11;94437.00;4970931;28;20228;-65
2022/05/29 01:04:57;;;;;;;19.55;12.45;;;;;;;18.22;76.63;94437.66;4971948;28;20222;-73
2022/05/29 01:07:26;;;;;;;14.55;12.27;;;;;;;18.23;77.09;94433.97;4969424;28;20245;-65
2022/05/29 01:09:53;;;;;;;14.40;12.57;;;;;;;18.23;77.02;94415.34;4984174;28;20198;-70
2022/05/29 01:12:24;;;;;;;14.82;11.48;;;;;;;18.19;76.89;94408.00;4971575;28;20212;-67
2022/05/29 01:15:27;;;;;;;19.35;11.98;;;;;;;18.10;76.67;94411.94;4976752;28;20548;-65
2022/05/29 01:18:26;;;;;;;16.08;11.45;;;;;;;18.07;77.15;94442.44;4990222;28;20238;-71
2022/05/29 01:20:52;;;;;;;15.77;11.88;;;;;;;18.08;77.11;94442.22;4960093;28;20240;-66
2022/05/29 01:23:42;;;;;;;16.65;10.27;;;;;;;18.07;76.02;94434.47;4969592;28;20227;-69
2022/05/29 01:26:17;;;;;;;13.32;9.88;;;;;;;18.04;75.69;94472.97;5004018;28;20235;-70
2022/05/29 01:28:52;;;;;;;11.73;8.73;;;;;;;17.98;73.97;94451.69;4969403;28;20230;-63
2022/05/29 01:31:39;;;;;;;13.57;9.57;;;;;;;17.97;73.93;94394.22;4973425;28;20199;-72
2022/05/29 01:34:05;;;;;;;18.58;10.40;;;;;;;17.92;75.73;94433.91;4984553;28;20826;-66
2022/05/29 01:36:56;;;;;;;13.68;9.85;;;;;;;17.93;75.79;94411.59;4983995;28;20232;-64
2022/05/29 01:39:30;;;;;;;13.45;8.73;;;;;;;17.94;74.88;94408.75;4977538;28;20251;-68
2022/05/29 01:42:29;;;;;;;12.05;9.18;;;;;;;17.87;74.61;94415.13;4984557;28;20235;-70
2022/05/29 01:44:59;;;;;;;12.93;9.05;;;;;;;17.84;75.48;94422.47;4997774;28;20479;-71
2022/05/29 01:47:31;;;;;;;13.20;9.88;;;;;;;17.84;75.52;94401.22;4987578;28;20258;-69
2022/05/29 01:50:06;;;;;;;10.57;7.88;;;;;;;17.82;73.77;94402.44;4991997;28;20621;-65
2022/05/29 01:52:43;;;;;;;12.45;7.88;;;;;;;17.77;73.15;94399.56;4989263;28;20210;-69
2022/05/29 01:55:15;;;;;;;9.43;6.45;;;;;;;17.63;72.42;94393.50;4990335;28;20215;-71
2022/05/29 01:57:44;;;;;;;10.75;5.70;;;;;;;17.63;72.37;94391.66;4967944;28;20238;-68
2022/05/29 02:00:18;;;;;;;10.00;5.07;;;;;;;17.63;71.32;94394.31;5002461;28;20317;-63
2022/05/29 02:02:50;;;;;;;10.98;5.60;;;;;;;17.76;71.65;94392.63;4990447;28;20254;-65
2022/05/29 02:05:21;;;;;;;8.18;5.38;;;;;;;17.72;72.77;94394.06;4983929;28;20238;-66
2022/05/29 02:07:52;;;;;;;9.65;5.30;;;;;;;17.67;72.73;94377.94;4974086;28;20223;-64
2022/05/29 02:10:27;;;;;;;10.68;5.78;;;;;;;17.58;73.31;94385.34;5002776;28;20199;-73
2022/05/29 02:13:00;;;;;;;10.30;5.55;;;;;;;17.70;72.95;94388.16;4985637;28;20261;-71
2022/05/29 02:16:03;;;;;;;8.32;5.28;;;;;;;17.75;72.54;94386.50;5002473;28;20233;-69
2022/05/29 02:18:39;;;;;;;9.63;5.85;;;;;;;17.70;72.10;94381.00;4986853;28;20321;-64
2022/05/29 02:21:39;;;;;;;8.23;5.20;;;;;;;17.73;71.83;94377.09;5003458;28;20280;-63
2022/05/29 02:24:11;;;;;;;8.88;5.32;;;;;;;17.62;72.06;94373.25;4980449;28;20235;-69
2022/05/29 02:26:42;;;;;;;9.70;5.45;;;;;;;17.64;70.99;94373.84;4989720;28;20273;-65
2022/05/29 02:29:12;;;;;;;7.15;4.20;;;;;;;17.71;70.86;94381.81;4985105;28;20226;-65
2022/05/29 02:31:52;;;;;;;8.85;4.10;;;;;;;17.71;70.68;94371.97;5002406;28;20191;-69
2022/05/29 02:34:51;;;;;;;8.45;4.47;;;;;;;17.58;70.43;94362.22;4998526;28;20211;-70
2022/05/29 02:37:25;;;;;;;8.52;4.53;;;;;;;17.58;70.55;94359.56;4984747;28;20311;-70
2022/05/29 02:40:12;;;;;;;8.27;4.43;;;;;;;17.47;70.37;94351.44;5003294;28;20296;-65
2022/05/29 02:42:44;;;;;;;6.60;4.15;;;;;;;17.47;69.72;94346.94;4983693;28;20234;-66
2022/05/29 02:45:31;;;;;;;8.48;4.00;;;;;;;17.43;69.60;94343.06;4988155;28;20265;-71
2022/05/29 02:48:19;;;;;;;6.03;4.03;;;;;;;17.37;69.60;94330.63;5001450;28;20226;-70
2022/05/29 02:50:51;;;;;;;9.57;4.28;;;;;;;17.36;69.50;94335.13;4998234;28;20247;-70
2022/05/29 02:53:16;;;;;;;7.18;4.70;;;;;;;17.36;69.93;94323.69;4987875;28;20265;-65
2022/05/29 02:55:43;;;;;;;8.02;4.50;;;;;;;17.41;69.60;94316.69;4988349;28;20223;-64
2022/05/29 02:58:23;;;;;;;6.55;4.40;;;;;;;17.41;68.73;94327.34;4993491;28;20195;-64
2022/05/29 03:01:08;;;;;;;10.13;4.28;;;;;;;17.34;69.31;94326.53;4968618;28;20233;-69
2022/05/29 03:03:48;;;;;;;7.35;5.03;;;;;;;17.40;69.12;94320.41;4904639;29;20244;-64
2022/05/29 03:06:21;;;;;;;6.43;4.78;;;;;;;17.39;69.82;94321.41;4909419;29;20255;-72
2022/05/29 03:09:23;;;;;;;8.82;5.00;;;;;;;17.47;69.64;94308.91;4923441;29;20263;-71
2022/05/29 03:11:49;;;;;;;8.57;4.63;;;;;;;17.35;70.33;94306.13;4922828;29;20236;-68
2022/05/29 03:14:51;;;;;;;9.68;5.22;;;;;;;17.39;70.04;94305.47;4925618;29;20233;-71
2022/05/29 03:17:45;;;;;;;9.57;5.32;;;;;;;17.36;70.00;94300.56;4839318;29;20235;-66
2022/05/29 03:20:18;;;;;;;9.15;4.90;;;;;;;17.40;69.53;94295.63;4848185;29;20240;-69
2022/05/29 03:22:49;;;;;;;6.50;4.60;;;;;;;17.41;69.21;94295.44;4835752;29;20232;-64
2022/05/29 03:25:37;;;;;;;8.82;5.25;;;;;;;17.36;69.13;94289.13;4847091;29;20205;-65
2022/05/29 03:28:07;;;;;;;9.55;5.43;;;;;;;17.29;69.86;94286.47;4831599;29;20243;-69
2022/05/29 03:30:36;;;;;;;8.88;5.30;;;;;;;17.35;69.95;94298.13;4833715;29;20252;-63
2022/05/29 03:33:07;;;;;;;9.00;5.28;;;;;;;17.39;69.40;94286.84;4833621;29;20247;-71
2022/05/29 03:35:34;;;;;;;8.80;5.25;;;;;;;17.42;69.37;94297.06;4851261;29;20236;-66
2022/05/29 03:38:01;;;;;;;11.32;4.85;;;;;;;17.41;69.37;94294.63;4836179;29;20295;-64
2022/05/29 03:40:29;;;;;;;7.38;5.47;;;;;;;17.41;69.30;94295.44;4864362;29;20362;-72
2022/05/29 03:42:56;;;;;;;7.32;4.63;;;;;;;17.26;69.55;94299.38;4891194;29;20340;-71
2022/05/29 03:45:22;;;;;;;8.60;5.25;;;;;;;17.36;68.72;94297.09;4891040;29;20785;-63
2022/05/29 03:47:48;;;;;;;9.35;4.93;;;;;;;17.35;68.88;94304.25;4895822;29;20227;-64
2022/05/29 03:50:17;;;;;;;10.63;5.28;;;;;;;17.36;69.18;94289.94;4872896;29;20230;-69
2022/05/29 03:52:44;;;;;;;6.07;4.65;;;;;;;17.42;68.36;94290.94;4883133;28;20234;-65
2022/05/29 03:55:11;;;;;;;7.78;4.40;;;;;;;17.45;68.13;94295.00;4970834;28;20223;-69
2022/05/29 03:57:37;;;;;;;8.50;4.68;;;;;;;17.50;68.04;94288.03;4974316;28;20227;-66
2022/05/29 04:00:08;;;;;;;9.07;5.13;;;;;;;17.49;67.82;94281.09;4984980;28;20258;-63
2022/05/29 04:02:34;;;;;;;6.68;4.72;;;;;;;17.38;68.01;94284.44;4963683;28;20238;-63
2022/05/29 04:05:00;;;;;;;6.38;4.53;;;;;;;17.48;68.13;94274.16;5000005;28;20907;-64
2022/05/29 04:12:55;;;;;;;9.52;4.72;;;;;;;17.67;67.59;94269.75;4985759;28;20309;-71
2022/05/29 04:15:21;;;;;;;9.93;4.97;;;;;;;17.76;67.28;94281.75;4966042;28;20273;-64
2022/05/29 04:17:46;;;;;;;9.25;4.90;;;;;;;17.77;66.73;94271.94;4992137;28;20218;-65
2022/05/29 04:20:12;;;;;;;8.57;4.85;;;;;;;17.82;66.34;94270.28;4983082;28;20224;-63
2022/05/29 04:22:37;;;;;;;7.22;5.05;;;;;;;17.96;66.40;94275.53;4984638;28;20207;-69
2022/05/29 04:25:03;;;;;;;6.97;4.93;;;;;;;17.99;66.59;94270.59;4986946;28;20199;-62
2022/05/29 04:27:28;;;;;;;7.00;4.50;;;;;;;18.06;65.98;94271.34;4988707;28;20206;-65
2022/05/29 04:29:54;;;;;;;11.40;5.10;;;;;;;18.17;64.34;94282.31;5001641;28;20600;-69
2022/05/29 04:35:04;;;;;;;7.75;4.20;;;;;;;18.25;63.57;94280.22;5002357;28;20277;-70
2022/05/29 04:37:30;;;;;;;5.88;4.00;;;;;;;18.37;62.45;94283.00;4991201;28;20211;-70
2022/05/29 04:39:56;;;;;;;6.25;3.53;;;;;;;18.45;62.47;94289.91;4991894;28;20329;-69
2022/05/29 04:42:22;;;;;;;8.45;3.95;;;;;;;18.50;62.06;94290.06;4990351;28;20282;-68
2022/05/29 04:44:48;;;;;;;10.73;4.20;;;;;;;18.59;61.41;94282.59;4995641;28;20317;-69
2022/05/29 04:47:13;;;;;;;7.88;4.30;;;;;;;18.63;61.70;94286.44;4988154;28;20211;-63
2022/05/29 04:49:39;;;;;;;8.90;3.95;;;;;;;18.77;61.07;94274.69;5005727;28;20211;-64
2022/05/29 04:52:09;;;;;;;7.78;3.80;;;;;;;18.89;60.42;94282.75;4990355;28;20213;-68
2022/05/29 04:54:37;;;;;;;6.47;3.83;;;;;;;19.00;59.82;94281.19;4969406;28;20545;-62
2022/05/29 04:57:04;;;;;;;7.30;3.78;;;;;;;19.00;60.21;94274.00;4985870;28;20274;-66
2022/05/29 04:59:30;;;;;;;7.07;3.83;;;;;;;19.04;60.05;94277.88;4989401;28;20602;-68
2022/05/29 05:01:59;;;;;;;6.22;4.57;;;;;;;19.00;62.81;94275.88;4987403;28;21253;-63
2022/05/29 05:04:25;;;;;;;7.43;4.90;;;;;;;19.01;62.91;94280.16;4983057;28;20207;-63
2022/05/29 05:06:54;;;;;;;7.40;4.90;;;;;;;19.13;62.83;94275.72;4985686;28;20242;-63
2022/05/29 05:09:19;;;;;;;6.30;4.10;;;;;;;19.22;62.31;94276.22;4987737;28;20545;-63
2022/05/29 05:11:44;;;;;;;9.70;5.05;;;;;;;19.47;62.02;94278.81;4983982;28;20219;-67
2022/05/29 05:14:10;;;;;;;8.65;5.85;;;;;;;19.48;62.16;94278.56;4985611;28;20234;-63
2022/05/29 05:16:35;;;;;;;10.07;5.63;;;;;;;19.56;62.01;94272.91;4986898;28;20211;-68
2022/05/29 05:19:03;;;;;;;9.52;5.20;;;;;;;19.37;62.37;94288.13;4983721;28;20212;-64
2022/05/29 05:21:31;;;;;;;11.93;6.93;;;;;;;19.21;62.84;94275.41;4990190;28;20234;-64
2022/05/29 05:23:57;;;;;;;9.18;5.50;;;;;;;19.13;64.22;94273.84;4984503;28;20231;-67
2022/05/29 05:26:22;;;;;;;8.73;4.75;;;;;;;19.28;62.54;94262.03;4987712;28;20773;-63
2022/05/29 05:28:47;;;;;;;12.45;4.47;;;;;;;19.24;61.58;94258.97;4983167;28;20277;-64
2022/05/29 05:31:13;;;;;;;8.70;4.40;;;;;;;19.32;62.11;94266.66;4987362;28;20202;-68
2022/05/29 05:33:38;;;;;;;10.07;4.40;;;;;;;19.35;61.36;94268.91;4966482;28;20749;-66
2022/05/29 05:36:07;;;;;;;6.90;4.28;;;;;;;19.29;61.43;94266.31;4969421;28;20224;-65
2022/05/29 05:38:32;;;;;;;9.82;3.90;;;;;;;19.24;61.64;94266.16;4961478;28;20228;-64
2022/05/29 05:40:58;;;;;;;8.38;4.03;;;;;;;19.46;61.56;94277.16;4968432;28;20231;-64
2022/05/29 05:43:23;;;;;;;9.45;4.38;;;;;;;19.38;62.53;94268.44;4967628;28;20218;-65
2022/05/29 05:45:49;;;;;;;7.10;3.78;;;;;;;19.72;60.47;94268.84;4970146;28;20234;-67
2022/05/29 05:48:16;;;;;;;6.15;4.10;;;;;;;19.73;60.33;94275.81;4961061;28;20302;-63
2022/05/29 05:50:42;;;;;;;10.23;4.20;;;;;;;19.84;59.91;94282.22;4988931;28;20223;-70
2022/05/29 05:53:08;;;;;;;11.30;4.13;;;;;;;19.93;60.24;94267.50;4989092;28;20313;-69
2022/05/29 05:55:36;;;;;;;8.80;4.63;;;;;;;19.99;60.31;94253.28;4985130;28;20204;-66
2022/05/29 05:58:02;;;;;;;6.85;4.30;;;;;;;20.02;60.14;94254.66;4969812;28;20527;-64
2022/05/29 06:00:28;;;;;;;11.00;4.22;;;;;;;19.89;60.09;94273.53;4959194;28;20242;-63
2022/05/29 06:02:56;;;;;;;7.43;3.95;;;;;;;19.76;60.46;94264.69;4945494;28;20225;-65
2022/05/29 06:05:22;;;;;;;7.82;4.35;;;;;;;19.82;60.70;94271.78;4938552;28;20233;-63
2022/05/29 06:07:47;;;;;;;8.55;4.10;;;;;;;19.90;60.82;94267.97;4944272;28;20246;-68
2022/05/29 06:10:13;;;;;;;10.38;4.90;;;;;;;19.90;61.21;94277.84;4963542;28;20291;-65
2022/05/29 06:12:39;;;;;;;10.30;4.20;;;;;;;19.89;61.08;94284.19;4954323;28;20231;-69
2022/05/29 06:15:06;;;;;;;7.07;3.85;;;;;;;19.91;60.95;94276.78;4958495;28;20224;-69
2022/05/29 06:17:32;;;;;;;10.20;3.92;;;;;;;19.93;60.21;94264.03;4966481;28;20224;-68
2022/05/29 06:19:58;;;;;;;9.48;3.97;;;;;;;19.94;60.31;94263.81;4962197;28;20236;-69
2022/05/29 06:22:23;;;;;;;7.38;3.97;;;;;;;20.00;59.31;94270.09;4963997;28;20213;-68
2022/05/29 06:24:49;;;;;;;10.07;4.07;;;;;;;19.99;58.43;94273.78;4963633;28;20200;-65
2022/05/29 06:27:14;;;;;;;7.45;3.45;;;;;;;20.08;58.11;94259.09;4968352;28;20224;-69
2022/05/29 06:29:43;;;;;;;6.63;3.10;;;;;;;20.08;57.25;94250.28;4968773;28;20224;-68
2022/05/29 06:32:09;;;;;;;5.93;3.17;;;;;;;20.05;57.17;94244.34;4967526;28;20243;-62
2022/05/29 06:34:35;;;;;;;7.75;3.58;;;;;;;20.19;56.87;94252.16;4958687;28;20234;-65
2022/05/29 06:37:05;;;;;;;8.02;3.47;;;;;;;20.16;57.13;94256.09;4954097;28;20222;-65
2022/05/29 06:39:31;;;;;;;6.28;3.58;;;;;;;20.20;57.64;94251.91;4954545;28;20228;-68
2022/05/29 06:41:58;;;;;;;7.57;3.97;;;;;;;20.26;57.33;94248.34;4954467;28;20311;-62
2022/05/29 06:44:26;;;;;;;6.40;3.10;;;;;;;20.32;56.42;94251.13;4964289;28;20224;-68
2022/05/29 06:46:53;;;;;;;7.30;3.42;;;;;;;20.30;56.14;94255.88;4951281;28;20299;-64
2022/05/29 06:49:18;;;;;;;7.03;3.50;;;;;;;20.40;55.88;94237.44;4955842;28;20212;-62
2022/05/29 06:51:44;;;;;;;10.73;3.67;;;;;;;20.36;56.64;94241.59;4949681;28;20227;-65
2022/05/29 06:54:09;;;;;;;5.55;2.88;;;;;;;20.47;54.77;94260.31;4952624;28;20232;-65
2022/05/29 06:56:35;;;;;;;7.10;3.42;;;;;;;20.56;55.07;94242.13;4948328;28;20235;-64
2022/05/29 06:59:03;;;;;;;8.40;3.13;;;;;;;20.57;55.48;94227.69;4946306;28;20658;-61
2022/05/29 07:07:11;;;;;;;8.02;3.03;;;;;;;20.84;54.03;94233.38;4915020;29;20252;-62
2022/05/29 07:09:41;;;;;;;5.47;3.33;;;;;;;20.85;54.66;94224.31;4916349;29;20562;-62
2022/05/29 07:12:15;;;;;;;6.72;3.10;;;;;;;20.96;53.88;94232.56;4898449;29;20217;-65
2022/05/29 07:14:46;;;;;;;9.27;3.38;;;;;;;21.00;54.73;94231.84;4915765;29;20229;-65
2022/05/29 07:17:14;;;;;;;6.70;3.38;;;;;;;20.95;54.86;94229.06;4914777;29;20229;-63
2022/05/29 07:19:44;;;;;;;8.45;3.15;;;;;;;21.12;53.72;94208.56;4903279;29;20273;-68
2022/05/29 07:22:11;;;;;;;8.40;3.30;;;;;;;21.02;54.05;94213.72;4905042;29;20377;-62
2022/05/29 07:24:36;;;;;;;8.65;2.97;;;;;;;20.95;53.33;94225.56;4905750;29;20802;-67
2022/05/29 07:27:02;;;;;;;8.70;3.72;;;;;;;21.06;54.50;94227.41;4921342;29;20244;-63
2022/05/29 07:29:29;;;;;;;7.97;3.58;;;;;;;21.17;54.57;94218.56;4889426;29;20241;-65
2022/05/29 07:31:54;;;;;;;7.10;3.30;;;;;;;21.26;55.10;94214.47;4904653;29;20229;-63
2022/05/29 07:34:21;;;;;;;8.88;3.95;;;;;;;21.34;54.57;94218.63;4922324;29;20214;-64
2022/05/29 07:36:49;;;;;;;7.57;3.08;;;;;;;21.34;55.17;94210.59;4907729;29;20244;-63
2022/05/29 07:39:16;;;;;;;5.88;3.53;;;;;;;21.37;53.95;94215.47;4908084;29;20229;-68
2022/05/29 07:44:25;;;;;;;7.13;3.22;;;;;;;21.33;51.81;94216.97;4962538;28;20678;-67
2022/05/29 07:46:51;;;;;;;9.90;3.65;;;;;;;21.47;51.65;94215.69;4958465;28;20228;-65
2022/05/29 07:49:16;;;;;;;6.32;3.80;;;;;;;21.40;52.03;94222.25;4965234;28;20208;-64
2022/05/29 07:51:42;;;;;;;5.50;2.70;;;;;;;21.45;51.90;94231.16;4962361;28;20313;-67
2022/05/29 07:54:07;;;;;;;7.60;3.75;;;;;;;21.48;52.17;94220.00;4955663;28;20224;-68
2022/05/29 07:56:33;;;;;;;4.55;2.70;;;;;;;21.47;52.41;94217.56;4962658;28;20236;-68
2022/05/29 07:58:59;;;;;;;7.60;2.97;;;;;;;21.55;52.33;94217.19;4963432;28;20829;-67
2022/05/29 08:01:24;;;;;;;7.32;3.08;;;;;;;21.62;52.46;94214.34;4979006;28;20237;-63
2022/05/29 08:03:50;;;;;;;6.55;2.80;;;;;;;21.70;52.42;94212.09;4982629;28;20207;-63
2022/05/29 08:06:15;;;;;;;11.27;3.05;;;;;;;21.71;52.34;94208.38;4982573;28;20235;-64
2022/05/29 08:08:42;;;;;;;9.23;3.13;;;;;;;21.75;51.72;94206.84;4984043;28;20248;-67
2022/05/29 08:11:07;;;;;;;6.82;3.50;;;;;;;21.78;52.19;94206.38;4984039;28;20314;-63
2022/05/29 08:13:37;;;;;;;9.95;3.35;;;;;;;21.81;51.59;94205.06;4984512;28;20570;-64
2022/05/29 08:16:04;;;;;;;6.07;3.00;;;;;;;21.95;51.89;94201.03;4983137;28;20246;-66
2022/05/29 08:18:30;;;;;;;6.82;2.80;;;;;;;22.02;50.43;94185.63;4986534;28;20235;-66
2022/05/29 08:20:56;;;;;;;8.00;3.08;;;;;;;21.95;50.37;94182.28;4983903;28;20231;-63
2022/05/29 08:23:22;;;;;;;6.45;2.85;;;;;;;22.16;49.62;94182.59;4986223;28;20238;-63
2022/05/29 08:31:23;;;;;;;11.02;3.30;;;;;;;22.40;49.19;94172.56;4982630;28;20231;-63
2022/05/29 08:33:48;;;;;;;6.15;3.00;;;;;;;22.46;48.78;94179.63;4983999;28;20208;-64
2022/05/29 08:36:19;;;;;;;9.25;3.45;;;;;;;22.48;48.94;94184.72;4976777;28;20236;-62
2022/05/29 08:38:47;;;;;;;9.38;3.47;;;;;;;22.48;49.07;94182.03;4982593;28;20235;-63
2022/05/29 08:41:51;;;;;;;9.70;3.13;;;;;;;22.59;48.70;94173.13;4985260;28;20305;-63
2022/05/29 08:44:23;;;;;;;8.20;2.97;;;;;;;22.70;49.46;94168.72;4986511;28;20230;-66
2022/05/29 08:46:52;;;;;;;7.07;2.90;;;;;;;22.78;47.79;94170.97;4986773;28;20226;-67
2022/05/29 08:49:29;;;;;;;5.75;2.80;;;;;;;22.92;47.85;94171.41;4984342;28;20648;-69
2022/05/29 08:52:21;;;;;;;12.85;3.45;;;;;;;22.88;47.07;94153.13;4983154;28;20231;-68
2022/05/29 08:55:06;;;;;;;10.13;3.55;;;;;;;23.01;46.49;94148.47;4979287;28;20223;-67
2022/05/29 08:57:44;;;;;;;7.45;2.92;;;;;;;23.09;45.06;94159.59;4993792;28;20347;-63
2022/05/29 09:00:44;;;;;;;8.10;3.17;;;;;;;23.04;44.68;94151.50;4977310;28;20339;-64
2022/05/29 09:03:53;;;;;;;6.93;3.28;;;;;;;23.17;44.61;94150.25;4961014;28;20313;-64
2022/05/29 09:06:28;;;;;;;9.10;3.20;;;;;;;23.14;44.41;94149.97;4946565;28;20725;-65
2022/05/29 09:09:03;;;;;;;7.63;3.10;;;;;;;23.17;44.54;94146.78;4961053;28;20438;-65
2022/05/29 09:11:34;;;;;;;8.63;3.63;;;;;;;23.28;44.18;94149.34;4950987;28;20231;-61
2022/05/29 09:14:38;;;;;;;9.55;2.83;;;;;;;23.27;43.85;94149.59;4942146;28;20246;-63
2022/05/29 09:17:09;;;;;;;7.47;3.30;;;;;;;23.38;45.21;94151.31;4888939;29;20311;-65
2022/05/29 09:19:34;;;;;;;9.98;3.40;;;;;;;23.48;44.54;94146.03;4885402;29;20206;-64
2022/05/29 09:22:14;;;;;;;16.23;4.32;;;;;;;23.50;44.67;94138.56;4905505;29;20265;-65
2022/05/29 09:24:43;;;;;;;12.05;3.47;;;;;;;23.54;44.08;94139.66;4904292;29;20233;-68
2022/05/29 09:27:11;;;;;;;12.30;3.25;;;;;;;23.62;44.44;94137.59;4904226;29;20233;-64
2022/05/29 09:29:37;;;;;;;5.53;3.30;;;;;;;23.59;44.29;94132.72;4905148;29;20841;-65
2022/05/29 09:32:13;;;;;;;7.70;3.38;;;;;;;23.55;44.49;94138.63;4906202;29;20381;-66
2022/05/29 09:34:40;;;;;;;9.77;3.03;;;;;;;23.66;44.43;94139.53;4907723;29;20217;-64
2022/05/29 09:37:22;;;;;;;8.27;3.15;;;;;;;23.77;44.05;94127.03;4892325;29;20225;-63
2022/05/29 09:39:55;;;;;;;14.48;3.63;;;;;;;23.87;45.22;94123.59;4909261;29;20240;-67
2022/05/29 09:42:31;;;;;;;10.93;3.55;;;;;;;24.04;45.02;94129.66;4883712;29;20223;-67
2022/05/29 09:45:13;;;;;;;9.90;3.40;;;;;;;24.17;44.38;94123.84;4885265;29;20238;-65
2022/05/29 09:50:38;;;;;;;8.05;3.67;;;;;;;24.30;43.63;94111.84;4884300;29;20290;-66
2022/05/29 09:53:10;;;;;;;8.25;3.30;;;;;;;24.46;43.24;94109.25;4902373;28;20231;-63
2022/05/29 09:55:37;;;;;;;8.40;3.40;;;;;;;24.54;42.82;94109.59;4964059;28;20259;-63
2022/05/29 09:58:12;;;;;;;11.77;3.85;;;;;;;24.39;42.96;94106.78;4962980;28;20203;-63
2022/05/29 10:00:42;;;;;;;7.90;3.60;;;;;;;24.45;43.15;94111.16;4984338;28;20238;-67
2022/05/29 10:03:11;;;;;;;8.00;3.35;;;;;;;24.44;43.24;94106.84;4980908;28;20634;-63
2022/05/29 10:05:42;;;;;;;9.18;3.65;;;;;;;24.58;42.15;94097.25;4980365;28;20240;-61
2022/05/29 10:08:31;;;;;;;10.45;3.65;;;;;;;24.61;43.35;94099.41;4979814;28;20358;-63
2022/05/29 10:11:31;;;;;;;10.02;4.93;;;;;;;24.79;41.70;94083.91;4976406;28;20528;-66
2022/05/29 10:14:00;;;;;;;8.35;3.58;;;;;;;24.79;42.33;94081.22;4975025;28;20215;-63
2022/05/29 10:16:37;;;;;;;8.10;3.38;;;;;;;24.76;41.54;94087.13;4976048;28;20232;-63
2022/05/29 10:19:08;;;;;;;11.27;4.13;;;;;;;24.75;41.18;94080.94;4977934;28;20210;-67
2022/05/29 10:21:50;;;;;;;6.53;3.40;;;;;;;24.77;41.85;94080.66;4980077;28;20278;-64
2022/05/29 10:24:31;;;;;;;7.25;3.45;;;;;;;24.97;41.02;94074.56;4980061;28;20234;-67
2022/05/29 10:27:01;;;;;;;11.57;3.45;;;;;;;25.16;40.93;94072.22;4980884;28;20358;-67
2022/05/29 10:29:31;;;;;;;11.57;3.22;;;;;;;25.23;40.94;94064.69;4991673;28;20227;-68
2022/05/29 10:31:59;;;;;;;7.45;3.45;;;;;;;25.39;40.84;94074.41;4976918;28;20226;-67
2022/05/29 10:34:33;;;;;;;9.25;3.53;;;;;;;25.44;40.84;94068.22;4981358;28;20287;-68
2022/05/29 10:37:01;;;;;;;8.38;3.22;;;;;;;25.36;40.79;94068.75;4991226;28;20269;-63
2022/05/29 10:39:31;;;;;;;7.95;3.33;;;;;;;25.43;41.24;94064.72;4982045;28;20263;-63
2022/05/29 10:41:58;;;;;;;5.55;3.10;;;;;;;25.78;40.94;94056.94;4982110;28;21142;-63
2022/05/29 10:44:46;;;;;;;9.90;3.50;;;;;;;26.04;41.53;94063.16;4980653;28;20228;-65
2022/05/29 10:47:21;;;;;;;9.93;3.75;;;;;;;26.08;41.16;94061.53;4976912;28;20223;-63
2022/05/29 10:50:14;;;;;;;11.70;4.40;;;;;;;25.95;40.34;94065.56;4983480;28;20232;-68
2022/05/29 10:52:56;;;;;;;9.88;3.90;;;;;;;26.22;40.96;94065.25;4981722;28;20199;-63
2022/05/29 10:55:34;;;;;;;7.15;3.63;;;;;;;26.30;41.07;94062.03;4975501;28;20214;-62
2022/05/29 10:58:06;;;;;;;8.63;3.92;;;;;;;26.53;40.23;94049.06;4978507;28;20536;-63
2022/05/29 11:00:40;;;;;;;9.77;3.60;;;;;;;26.56;40.11;94052.00;4970987;28;20243;-70
2022/05/29 11:03:28;;;;;;;10.45;3.97;;;;;;;26.67;39.72;94041.19;4963248;28;20244;-63
2022/05/29 11:06:09;;;;;;;6.53;3.92;;;;;;;26.55;39.82;94036.91;4983297;28;20224;-63
2022/05/29 11:08:53;;;;;;;9.45;4.22;;;;;;;26.68;39.72;94040.06;4985712;28;20242;-67
2022/05/29 11:11:22;;;;;;;9.35;4.05;;;;;;;26.89;40.18;94032.72;4967306;28;20244;-62
2022/05/29 11:14:02;;;;;;;10.75;4.05;;;;;;;26.94;38.55;94027.28;4963980;28;20363;-67
2022/05/29 11:16:33;;;;;;;9.07;3.65;;;;;;;27.05;39.69;94020.75;4963170;28;20208;-67
2022/05/29 11:19:16;;;;;;;11.52;4.20;;;;;;;27.01;39.44;94011.63;4978791;28;20271;-67
2022/05/29 11:21:42;;;;;;;9.27;4.28;;;;;;;27.14;39.20;94015.59;4963350;28;20228;-67
2022/05/29 11:24:19;;;;;;;8.40;3.78;;;;;;;26.98;38.67;94023.75;4964339;28;20291;-68
2022/05/29 11:26:57;;;;;;;11.10;3.90;;;;;;;27.15;38.84;94004.50;4953996;28;20311;-62
2022/05/29 11:29:33;;;;;;;10.13;3.67;;;;;;;27.19;38.40;93997.50;4978452;28;20440;-62
2022/05/29 11:32:21;;;;;;;8.80;3.78;;;;;;;27.25;38.28;93982.06;4964352;28;20285;-67
2022/05/29 11:35:06;;;;;;;9.15;4.25;;;;;;;27.05;38.18;93982.97;4959328;28;20225;-62
2022/05/29 11:37:53;;;;;;;7.38;3.40;;;;;;;27.27;37.64;93971.81;4958608;28;20211;-68
2022/05/29 11:40:18;;;;;;;6.57;3.90;;;;;;;27.41;37.82;93977.38;4984135;28;20208;-63
2022/05/29 11:42:54;;;;;;;8.32;3.97;;;;;;;27.38;37.20;93965.25;4981994;28;20354;-68
2022/05/29 11:51:07;;;;;;;9.00;3.70;;;;;;;27.48;37.97;93964.38;4961941;28;20686;-63
2022/05/29 11:51:16;;;;;;;12.35;5.20;;;;;;;27.50;38.35;93954.06;4963232;28;20963;-72
2022/05/29 11:53:42;;;;;;;6.63;4.53;;;;;;;27.59;37.92;93951.56;4961151;28;20319;-63
2022/05/29 11:56:16;;;;;;;10.32;4.53;;;;;;;27.77;37.35;93941.94;4961809;28;20306;-64
2022/05/29 11:58:48;;;;;;;9.05;4.43;;;;;;;27.88;37.25;93936.19;4964161;28;20223;-69
2022/05/29 12:01:37;;;;;;;10.13;4.53;;;;;;;27.85;37.45;93952.97;4978176;28;20224;-70
2022/05/29 12:04:21;;;;;;;8.25;4.60;;;;;;;28.12;37.50;93957.81;4900829;29;20265;-64
2022/05/29 12:06:57;;;;;;;10.43;4.70;;;;;;;28.05;37.55;93957.34;4883305;29;20241;-63
2022/05/29 12:09:33;;;;;;;9.68;4.65;;;;;;;28.19;37.74;93943.16;4899040;29;20233;-64
2022/05/29 12:12:07;;;;;;;10.27;5.07;;;;;;;28.52;36.59;93953.06;4900574;29;20233;-65
2022/05/29 12:14:41;;;;;;;9.68;4.80;;;;;;;28.36;37.36;93943.47;4897644;29;20349;-70
2022/05/29 12:17:17;;;;;;;7.47;4.68;;;;;;;28.07;36.99;93935.47;4879966;29;20252;-71
2022/05/29 12:19:45;;;;;;;11.25;4.30;;;;;;;28.45;36.72;93940.97;4879236;29;20229;-65